sensor_id;sensor_type;location;lat;lon;timestamp;temperature;humidity
12632;DHT22;6381;45.748;12.106;2023-06-19T00:00:08;23.00;99.30
12632;DHT22;6381;45.748;12.106;2023-06-19T00:02:41;23.00;99.60
12632;DHT22;6381;45.748;12.106;2023-06-19T00:05:11;23.00;99.80
12632;DHT22;6381;45.748;12.106;2023-06-19T00:07:40;23.20;99.70
12632;DHT22;6381;45.748;12.106;2023-06-19T00:10:09;23.10;99.80
12632;DHT22;6381;45.748;12.106;2023-06-19T00:12:38;22.90;99.40
12632;DHT22;6381;45.748;12.106;2023-06-19T00:15:10;23.20;99.50
12632;DHT22;6381;45.748;12.106;2023-06-19T00:17:39;22.90;99.80
12632;DHT22;6381;45.748;12.106;2023-06-19T00:20:09;23.00;99.90
12632;DHT22;6381;45.748;12.106;2023-06-19T00:22:37;23.00;99.90
12632;DHT22;6381;45.748;12.106;2023-06-19T00:25:07;22.70;99.90
12632;DHT22;6381;45.748;12.106;2023-06-19T00:27:37;22.90;99.90
12632;DHT22;6381;45.748;12.106;2023-06-19T00:30:09;22.80;99.90
12632;DHT22;6381;45.748;12.106;2023-06-19T00:32:38;22.90;99.50
12632;DHT22;6381;45.748;12.106;2023-06-19T00:35:14;22.90;99.80
12632;DHT22;6381;45.748;12.106;2023-06-19T00:37:43;22.90;99.90
12632;DHT22;6381;45.748;12.106;2023-06-19T00:40:18;22.80;99.90
12632;DHT22;6381;45.748;12.106;2023-06-19T00:42:48;22.70;99.90
12632;DHT22;6381;45.748;12.106;2023-06-19T00:45:19;22.60;99.90
12632;DHT22;6381;45.748;12.106;2023-06-19T00:47:47;22.60;99.90
12632;DHT22;6381;45.748;12.106;2023-06-19T00:50:17;22.90;99.90
12632;DHT22;6381;45.748;12.106;2023-06-19T00:52:46;22.80;99.90
12632;DHT22;6381;45.748;12.106;2023-06-19T00:55:17;22.50;99.90
12632;DHT22;6381;45.748;12.106;2023-06-19T00:57:46;22.60;99.90
12632;DHT22;6381;45.748;12.106;2023-06-19T01:00:15;22.90;99.90
12632;DHT22;6381;45.748;12.106;2023-06-19T01:02:47;22.80;99.90
12632;DHT22;6381;45.748;12.106;2023-06-19T01:05:16;22.70;99.90
12632;DHT22;6381;45.748;12.106;2023-06-19T01:07:55;22.70;99.90
12632;DHT22;6381;45.748;12.106;2023-06-19T01:10:29;22.70;99.90
12632;DHT22;6381;45.748;12.106;2023-06-19T01:13:07;22.70;99.90
12632;DHT22;6381;45.748;12.106;2023-06-19T01:15:40;22.40;99.90
12632;DHT22;6381;45.748;12.106;2023-06-19T01:18:12;22.20;99.90
12632;DHT22;6381;45.748;12.106;2023-06-19T01:20:42;22.40;99.90
12632;DHT22;6381;45.748;12.106;2023-06-19T01:23:13;22.40;99.90
12632;DHT22;6381;45.748;12.106;2023-06-19T01:25:42;22.60;99.90
12632;DHT22;6381;45.748;12.106;2023-06-19T01:28:11;22.60;99.90
12632;DHT22;6381;45.748;12.106;2023-06-19T01:30:41;22.40;99.90
12632;DHT22;6381;45.748;12.106;2023-06-19T01:33:15;22.40;99.90
12632;DHT22;6381;45.748;12.106;2023-06-19T01:35:49;22.50;99.90
12632;DHT22;6381;45.748;12.106;2023-06-19T01:38:22;22.40;99.90
12632;DHT22;6381;45.748;12.106;2023-06-19T01:40:55;22.40;99.90
12632;DHT22;6381;45.748;12.106;2023-06-19T01:43:26;22.40;99.90
12632;DHT22;6381;45.748;12.106;2023-06-19T01:45:55;22.50;99.90
12632;DHT22;6381;45.748;12.106;2023-06-19T01:48:25;22.70;99.90
12632;DHT22;6381;45.748;12.106;2023-06-19T01:50:53;22.60;99.90
12632;DHT22;6381;45.748;12.106;2023-06-19T01:53:24;22.70;99.90
12632;DHT22;6381;45.748;12.106;2023-06-19T01:55:53;22.40;99.90
12632;DHT22;6381;45.748;12.106;2023-06-19T01:58:22;22.60;99.90
12632;DHT22;6381;45.748;12.106;2023-06-19T02:00:50;22.80;99.90
12632;DHT22;6381;45.748;12.106;2023-06-19T02:03:19;22.70;99.90
12632;DHT22;6381;45.748;12.106;2023-06-19T02:05:48;22.70;99.90
12632;DHT22;6381;45.748;12.106;2023-06-19T02:08:17;22.50;99.90
12632;DHT22;6381;45.748;12.106;2023-06-19T02:10:47;22.70;99.90
12632;DHT22;6381;45.748;12.106;2023-06-19T02:13:16;22.40;99.90
12632;DHT22;6381;45.748;12.106;2023-06-19T02:15:45;22.70;99.90
12632;DHT22;6381;45.748;12.106;2023-06-19T02:18:14;22.50;99.90
12632;DHT22;6381;45.748;12.106;2023-06-19T02:20:43;22.80;99.90
12632;DHT22;6381;45.748;12.106;2023-06-19T02:23:12;22.60;99.90
12632;DHT22;6381;45.748;12.106;2023-06-19T02:25:41;22.40;99.90
12632;DHT22;6381;45.748;12.106;2023-06-19T02:28:11;22.30;99.90
12632;DHT22;6381;45.748;12.106;2023-06-19T02:30:40;22.50;99.90
12632;DHT22;6381;45.748;12.106;2023-06-19T02:33:09;22.20;99.90
12632;DHT22;6381;45.748;12.106;2023-06-19T02:35:38;21.90;99.90
12632;DHT22;6381;45.748;12.106;2023-06-19T02:38:08;21.90;99.90
12632;DHT22;6381;45.748;12.106;2023-06-19T02:40:37;21.90;99.90
12632;DHT22;6381;45.748;12.106;2023-06-19T02:43:06;22.10;99.90
12632;DHT22;6381;45.748;12.106;2023-06-19T02:45:37;22.10;99.90
12632;DHT22;6381;45.748;12.106;2023-06-19T02:48:06;22.00;99.90
12632;DHT22;6381;45.748;12.106;2023-06-19T02:50:35;22.20;99.90
12632;DHT22;6381;45.748;12.106;2023-06-19T02:53:04;22.40;99.90
12632;DHT22;6381;45.748;12.106;2023-06-19T02:55:33;22.30;99.90
12632;DHT22;6381;45.748;12.106;2023-06-19T02:58:03;22.30;99.90
12632;DHT22;6381;45.748;12.106;2023-06-19T03:00:32;22.30;99.90
12632;DHT22;6381;45.748;12.106;2023-06-19T03:03:02;22.00;99.90
12632;DHT22;6381;45.748;12.106;2023-06-19T03:05:31;22.10;99.90
12632;DHT22;6381;45.748;12.106;2023-06-19T03:08:00;22.00;99.90
12632;DHT22;6381;45.748;12.106;2023-06-19T03:10:30;22.10;99.90
12632;DHT22;6381;45.748;12.106;2023-06-19T03:12:59;22.10;99.90
12632;DHT22;6381;45.748;12.106;2023-06-19T03:15:28;21.80;99.90
12632;DHT22;6381;45.748;12.106;2023-06-19T03:17:56;21.80;99.90
12632;DHT22;6381;45.748;12.106;2023-06-19T03:20:27;21.90;99.90
12632;DHT22;6381;45.748;12.106;2023-06-19T03:22:57;21.90;99.90
12632;DHT22;6381;45.748;12.106;2023-06-19T03:25:27;21.80;99.90
12632;DHT22;6381;45.748;12.106;2023-06-19T03:28:03;21.90;99.90
12632;DHT22;6381;45.748;12.106;2023-06-19T03:30:34;21.80;99.90
12632;DHT22;6381;45.748;12.106;2023-06-19T03:33:03;21.80;99.90
12632;DHT22;6381;45.748;12.106;2023-06-19T03:35:51;21.70;99.90
12632;DHT22;6381;45.748;12.106;2023-06-19T03:38:58;21.80;99.90
12632;DHT22;6381;45.748;12.106;2023-06-19T03:41:30;22.10;99.90
12632;DHT22;6381;45.748;12.106;2023-06-19T03:43:59;21.90;99.90
12632;DHT22;6381;45.748;12.106;2023-06-19T03:46:28;22.00;99.90
12632;DHT22;6381;45.748;12.106;2023-06-19T03:48:57;21.90;99.90
12632;DHT22;6381;45.748;12.106;2023-06-19T03:51:29;22.00;99.90
12632;DHT22;6381;45.748;12.106;2023-06-19T03:53:58;22.20;99.90
12632;DHT22;6381;45.748;12.106;2023-06-19T03:56:28;22.10;99.90
12632;DHT22;6381;45.748;12.106;2023-06-19T03:58:57;21.80;99.90
12632;DHT22;6381;45.748;12.106;2023-06-19T04:01:26;21.90;99.90
12632;DHT22;6381;45.748;12.106;2023-06-19T04:03:55;22.10;99.90
12632;DHT22;6381;45.748;12.106;2023-06-19T04:06:24;22.00;99.90
12632;DHT22;6381;45.748;12.106;2023-06-19T04:08:54;21.90;99.90
12632;DHT22;6381;45.748;12.106;2023-06-19T04:11:23;22.20;99.90
12632;DHT22;6381;45.748;12.106;2023-06-19T04:13:52;22.20;99.90
12632;DHT22;6381;45.748;12.106;2023-06-19T04:16:20;22.00;99.90
12632;DHT22;6381;45.748;12.106;2023-06-19T04:18:49;22.00;99.90
12632;DHT22;6381;45.748;12.106;2023-06-19T04:21:18;22.00;99.90
12632;DHT22;6381;45.748;12.106;2023-06-19T04:23:47;22.30;99.90
12632;DHT22;6381;45.748;12.106;2023-06-19T04:26:17;22.30;99.90
12632;DHT22;6381;45.748;12.106;2023-06-19T04:28:46;22.30;99.90
12632;DHT22;6381;45.748;12.106;2023-06-19T04:31:15;22.10;99.90
12632;DHT22;6381;45.748;12.106;2023-06-19T04:33:45;22.00;99.90
12632;DHT22;6381;45.748;12.106;2023-06-19T04:36:14;22.30;99.90
12632;DHT22;6381;45.748;12.106;2023-06-19T04:38:44;22.30;99.90
12632;DHT22;6381;45.748;12.106;2023-06-19T04:41:13;22.20;99.90
12632;DHT22;6381;45.748;12.106;2023-06-19T04:43:43;22.30;99.90
12632;DHT22;6381;45.748;12.106;2023-06-19T04:46:12;22.20;99.90
12632;DHT22;6381;45.748;12.106;2023-06-19T04:48:41;22.20;99.90
12632;DHT22;6381;45.748;12.106;2023-06-19T04:51:10;22.30;99.90
12632;DHT22;6381;45.748;12.106;2023-06-19T04:53:39;22.40;99.90
12632;DHT22;6381;45.748;12.106;2023-06-19T04:56:08;22.40;99.90
12632;DHT22;6381;45.748;12.106;2023-06-19T04:58:37;22.50;99.90
12632;DHT22;6381;45.748;12.106;2023-06-19T05:01:14;22.60;99.90
12632;DHT22;6381;45.748;12.106;2023-06-19T05:03:45;22.70;99.90
12632;DHT22;6381;45.748;12.106;2023-06-19T05:08:44;22.80;99.90
12632;DHT22;6381;45.748;12.106;2023-06-19T05:13:42;23.40;99.90
12632;DHT22;6381;45.748;12.106;2023-06-19T05:16:11;23.20;99.90
12632;DHT22;6381;45.748;12.106;2023-06-19T05:21:14;23.30;99.50
12632;DHT22;6381;45.748;12.106;2023-06-19T05:23:43;23.60;99.90
12632;DHT22;6381;45.748;12.106;2023-06-19T05:26:14;23.50;99.90
12632;DHT22;6381;45.748;12.106;2023-06-19T05:28:43;23.20;99.90
12632;DHT22;6381;45.748;12.106;2023-06-19T05:31:13;23.50;99.90
12632;DHT22;6381;45.748;12.106;2023-06-19T05:33:42;23.40;99.90
12632;DHT22;6381;45.748;12.106;2023-06-19T05:36:13;23.80;99.90
12632;DHT22;6381;45.748;12.106;2023-06-19T05:38:43;23.60;99.90
12632;DHT22;6381;45.748;12.106;2023-06-19T05:41:13;23.80;99.90
12632;DHT22;6381;45.748;12.106;2023-06-19T05:43:43;23.60;99.90
12632;DHT22;6381;45.748;12.106;2023-06-19T05:46:12;23.80;99.90
12632;DHT22;6381;45.748;12.106;2023-06-19T05:48:41;23.80;99.80
12632;DHT22;6381;45.748;12.106;2023-06-19T05:51:13;23.80;99.90
12632;DHT22;6381;45.748;12.106;2023-06-19T05:53:42;24.00;99.90
12632;DHT22;6381;45.748;12.106;2023-06-19T05:56:11;23.90;99.80
12632;DHT22;6381;45.748;12.106;2023-06-19T05:58:40;24.00;99.90
12632;DHT22;6381;45.748;12.106;2023-06-19T06:01:10;24.00;99.90
12632;DHT22;6381;45.748;12.106;2023-06-19T06:03:39;24.10;99.90
12632;DHT22;6381;45.748;12.106;2023-06-19T06:06:08;23.90;99.90
12632;DHT22;6381;45.748;12.106;2023-06-19T06:08:39;24.00;99.90
12632;DHT22;6381;45.748;12.106;2023-06-19T06:11:09;24.00;99.90
12632;DHT22;6381;45.748;12.106;2023-06-19T06:13:38;23.90;99.90
12632;DHT22;6381;45.748;12.106;2023-06-19T06:16:07;24.00;99.90
12632;DHT22;6381;45.748;12.106;2023-06-19T06:18:36;24.00;99.90
12632;DHT22;6381;45.748;12.106;2023-06-19T06:21:05;24.00;99.90
12632;DHT22;6381;45.748;12.106;2023-06-19T06:23:33;24.00;99.90
12632;DHT22;6381;45.748;12.106;2023-06-19T06:26:04;23.90;99.90
12632;DHT22;6381;45.748;12.106;2023-06-19T06:28:33;24.10;99.90
12632;DHT22;6381;45.748;12.106;2023-06-19T06:31:02;24.20;99.80
12632;DHT22;6381;45.748;12.106;2023-06-19T06:33:30;24.30;99.90
12632;DHT22;6381;45.748;12.106;2023-06-19T06:36:00;24.20;99.80
12632;DHT22;6381;45.748;12.106;2023-06-19T06:38:29;24.20;99.60
12632;DHT22;6381;45.748;12.106;2023-06-19T06:40:58;24.40;99.40
12632;DHT22;6381;45.748;12.106;2023-06-19T06:43:29;24.30;99.30
12632;DHT22;6381;45.748;12.106;2023-06-19T06:45:58;24.50;98.70
12632;DHT22;6381;45.748;12.106;2023-06-19T06:48:28;24.40;98.70
12632;DHT22;6381;45.748;12.106;2023-06-19T06:50:57;24.50;98.20
12632;DHT22;6381;45.748;12.106;2023-06-19T06:53:29;24.40;98.10
12632;DHT22;6381;45.748;12.106;2023-06-19T06:55:59;24.60;97.50
12632;DHT22;6381;45.748;12.106;2023-06-19T06:58:29;24.60;96.30
12632;DHT22;6381;45.748;12.106;2023-06-19T07:00:58;24.70;95.60
12632;DHT22;6381;45.748;12.106;2023-06-19T07:03:27;24.60;96.80
12632;DHT22;6381;45.748;12.106;2023-06-19T07:05:59;24.70;96.50
12632;DHT22;6381;45.748;12.106;2023-06-19T07:08:29;24.80;95.70
12632;DHT22;6381;45.748;12.106;2023-06-19T07:10:58;24.90;95.00
12632;DHT22;6381;45.748;12.106;2023-06-19T07:13:28;24.90;94.30
12632;DHT22;6381;45.748;12.106;2023-06-19T07:15:57;25.00;93.80
12632;DHT22;6381;45.748;12.106;2023-06-19T07:18:28;25.00;94.70
12632;DHT22;6381;45.748;12.106;2023-06-19T07:20:57;25.10;94.50
12632;DHT22;6381;45.748;12.106;2023-06-19T07:23:28;25.00;93.00
12632;DHT22;6381;45.748;12.106;2023-06-19T07:25:57;25.10;93.50
12632;DHT22;6381;45.748;12.106;2023-06-19T07:28:25;25.30;94.40
12632;DHT22;6381;45.748;12.106;2023-06-19T07:30:56;25.20;93.60
12632;DHT22;6381;45.748;12.106;2023-06-19T07:33:25;25.30;93.50
12632;DHT22;6381;45.748;12.106;2023-06-19T07:38:22;25.30;90.30
12632;DHT22;6381;45.748;12.106;2023-06-19T07:40:51;25.30;90.70
12632;DHT22;6381;45.748;12.106;2023-06-19T07:43:20;25.30;91.20
12632;DHT22;6381;45.748;12.106;2023-06-19T07:45:50;25.30;89.30
12632;DHT22;6381;45.748;12.106;2023-06-19T07:48:20;25.20;90.40
12632;DHT22;6381;45.748;12.106;2023-06-19T07:50:53;25.30;90.30
12632;DHT22;6381;45.748;12.106;2023-06-19T07:53:22;25.50;91.40
12632;DHT22;6381;45.748;12.106;2023-06-19T07:55:51;25.50;90.90
12632;DHT22;6381;45.748;12.106;2023-06-19T07:58:20;25.70;91.00
12632;DHT22;6381;45.748;12.106;2023-06-19T08:00:49;25.80;90.70
12632;DHT22;6381;45.748;12.106;2023-06-19T08:03:20;25.80;89.70
12632;DHT22;6381;45.748;12.106;2023-06-19T08:05:52;25.90;90.30
12632;DHT22;6381;45.748;12.106;2023-06-19T08:08:21;26.00;88.00
12632;DHT22;6381;45.748;12.106;2023-06-19T08:10:51;26.10;87.60
12632;DHT22;6381;45.748;12.106;2023-06-19T08:13:20;26.20;86.00
12632;DHT22;6381;45.748;12.106;2023-06-19T08:15:49;26.50;85.70
12632;DHT22;6381;45.748;12.106;2023-06-19T08:18:18;26.30;84.10
12632;DHT22;6381;45.748;12.106;2023-06-19T08:20:48;26.30;84.90
12632;DHT22;6381;45.748;12.106;2023-06-19T08:23:17;26.20;79.90
12632;DHT22;6381;45.748;12.106;2023-06-19T08:25:46;26.20;78.00
12632;DHT22;6381;45.748;12.106;2023-06-19T08:28:15;26.40;79.80
12632;DHT22;6381;45.748;12.106;2023-06-19T08:30:44;26.60;78.80
12632;DHT22;6381;45.748;12.106;2023-06-19T08:33:14;26.50;75.20
12632;DHT22;6381;45.748;12.106;2023-06-19T08:35:43;26.60;78.40
12632;DHT22;6381;45.748;12.106;2023-06-19T08:38:15;26.70;78.00
12632;DHT22;6381;45.748;12.106;2023-06-19T08:40:45;26.80;76.20
12632;DHT22;6381;45.748;12.106;2023-06-19T08:43:14;26.70;78.00
12632;DHT22;6381;45.748;12.106;2023-06-19T08:45:43;26.80;76.90
12632;DHT22;6381;45.748;12.106;2023-06-19T08:48:13;27.00;76.90
12632;DHT22;6381;45.748;12.106;2023-06-19T08:50:42;26.90;78.50
12632;DHT22;6381;45.748;12.106;2023-06-19T08:53:12;27.10;75.10
12632;DHT22;6381;45.748;12.106;2023-06-19T08:55:44;27.10;76.30
12632;DHT22;6381;45.748;12.106;2023-06-19T08:58:21;27.30;75.40
12632;DHT22;6381;45.748;12.106;2023-06-19T09:00:50;27.10;72.10
12632;DHT22;6381;45.748;12.106;2023-06-19T09:03:20;27.10;72.30
12632;DHT22;6381;45.748;12.106;2023-06-19T09:05:50;27.20;75.20
12632;DHT22;6381;45.748;12.106;2023-06-19T09:08:21;27.10;76.90
12632;DHT22;6381;45.748;12.106;2023-06-19T09:10:59;27.20;76.80
12632;DHT22;6381;45.748;12.106;2023-06-19T09:13:28;27.30;75.10
12632;DHT22;6381;45.748;12.106;2023-06-19T09:16:04;27.30;73.80
12632;DHT22;6381;45.748;12.106;2023-06-19T09:18:43;27.60;73.90
12632;DHT22;6381;45.748;12.106;2023-06-19T09:21:17;27.70;70.00
12632;DHT22;6381;45.748;12.106;2023-06-19T09:23:46;27.70;71.10
12632;DHT22;6381;45.748;12.106;2023-06-19T09:26:19;27.60;67.10
12632;DHT22;6381;45.748;12.106;2023-06-19T09:28:48;27.70;66.60
12632;DHT22;6381;45.748;12.106;2023-06-19T09:31:18;27.80;67.60
12632;DHT22;6381;45.748;12.106;2023-06-19T09:33:47;28.00;66.90
12632;DHT22;6381;45.748;12.106;2023-06-19T09:36:17;27.90;66.40
12632;DHT22;6381;45.748;12.106;2023-06-19T09:38:52;27.80;67.00
12632;DHT22;6381;45.748;12.106;2023-06-19T09:41:25;28.10;62.60
12632;DHT22;6381;45.748;12.106;2023-06-19T09:43:55;27.90;67.90
12632;DHT22;6381;45.748;12.106;2023-06-19T09:46:30;28.10;67.30
12632;DHT22;6381;45.748;12.106;2023-06-19T09:49:01;28.10;67.20
12632;DHT22;6381;45.748;12.106;2023-06-19T09:51:37;28.30;65.30
12632;DHT22;6381;45.748;12.106;2023-06-19T09:54:11;28.10;62.40
12632;DHT22;6381;45.748;12.106;2023-06-19T09:56:45;28.20;65.90
12632;DHT22;6381;45.748;12.106;2023-06-19T09:59:19;28.50;64.60
12632;DHT22;6381;45.748;12.106;2023-06-19T10:01:49;28.40;65.00
12632;DHT22;6381;45.748;12.106;2023-06-19T10:04:18;28.50;63.30
12632;DHT22;6381;45.748;12.106;2023-06-19T10:06:47;28.70;63.90
12632;DHT22;6381;45.748;12.106;2023-06-19T10:09:17;28.70;62.40
12632;DHT22;6381;45.748;12.106;2023-06-19T10:11:49;29.00;61.40
12632;DHT22;6381;45.748;12.106;2023-06-19T10:14:20;28.90;58.30
12632;DHT22;6381;45.748;12.106;2023-06-19T10:16:49;28.70;58.50
12632;DHT22;6381;45.748;12.106;2023-06-19T10:19:21;28.10;55.60
12632;DHT22;6381;45.748;12.106;2023-06-19T10:21:53;28.10;55.80
12632;DHT22;6381;45.748;12.106;2023-06-19T10:24:25;28.00;54.80
12632;DHT22;6381;45.748;12.106;2023-06-19T10:27:01;28.20;54.20
12632;DHT22;6381;45.748;12.106;2023-06-19T10:29:38;28.40;58.30
12632;DHT22;6381;45.748;12.106;2023-06-19T10:32:16;28.50;56.70
12632;DHT22;6381;45.748;12.106;2023-06-19T10:34:46;28.50;55.50
12632;DHT22;6381;45.748;12.106;2023-06-19T10:37:16;28.90;55.60
12632;DHT22;6381;45.748;12.106;2023-06-19T10:39:45;29.00;55.50
12632;DHT22;6381;45.748;12.106;2023-06-19T10:42:15;29.10;54.10
12632;DHT22;6381;45.748;12.106;2023-06-19T10:44:44;29.20;53.60
12632;DHT22;6381;45.748;12.106;2023-06-19T10:47:14;29.20;54.40
12632;DHT22;6381;45.748;12.106;2023-06-19T10:49:45;29.40;54.20
12632;DHT22;6381;45.748;12.106;2023-06-19T10:52:13;29.80;55.80
12632;DHT22;6381;45.748;12.106;2023-06-19T10:54:43;29.90;56.10
12632;DHT22;6381;45.748;12.106;2023-06-19T10:57:12;30.00;59.00
12632;DHT22;6381;45.748;12.106;2023-06-19T10:59:43;29.70;55.50
12632;DHT22;6381;45.748;12.106;2023-06-19T11:02:12;29.60;55.50
12632;DHT22;6381;45.748;12.106;2023-06-19T11:04:41;29.80;58.00
12632;DHT22;6381;45.748;12.106;2023-06-19T11:07:10;29.80;52.90
12632;DHT22;6381;45.748;12.106;2023-06-19T11:09:39;29.10;52.90
12632;DHT22;6381;45.748;12.106;2023-06-19T11:12:18;29.20;54.00
12632;DHT22;6381;45.748;12.106;2023-06-19T11:14:49;29.40;53.10
12632;DHT22;6381;45.748;12.106;2023-06-19T11:17:18;30.10;59.10
12632;DHT22;6381;45.748;12.106;2023-06-19T11:19:49;30.20;60.50
12632;DHT22;6381;45.748;12.106;2023-06-19T11:22:18;30.30;56.60
12632;DHT22;6381;45.748;12.106;2023-06-19T11:24:48;30.10;52.10
12632;DHT22;6381;45.748;12.106;2023-06-19T11:27:20;29.80;50.60
12632;DHT22;6381;45.748;12.106;2023-06-19T11:29:59;29.00;50.60
12632;DHT22;6381;45.748;12.106;2023-06-19T11:32:32;29.20;52.60
12632;DHT22;6381;45.748;12.106;2023-06-19T11:35:09;28.90;51.60
12632;DHT22;6381;45.748;12.106;2023-06-19T11:37:42;28.80;50.80
12632;DHT22;6381;45.748;12.106;2023-06-19T11:40:11;29.30;55.20
12632;DHT22;6381;45.748;12.106;2023-06-19T11:42:47;29.60;50.40
12632;DHT22;6381;45.748;12.106;2023-06-19T11:45:18;29.60;50.90
12632;DHT22;6381;45.748;12.106;2023-06-19T11:47:49;29.40;51.70
12632;DHT22;6381;45.748;12.106;2023-06-19T11:50:18;29.20;51.30
12632;DHT22;6381;45.748;12.106;2023-06-19T11:52:51;29.30;52.40
12632;DHT22;6381;45.748;12.106;2023-06-19T11:55:21;29.50;51.90
12632;DHT22;6381;45.748;12.106;2023-06-19T11:58:07;30.10;52.10
12632;DHT22;6381;45.748;12.106;2023-06-19T12:00:48;29.90;51.10
12632;DHT22;6381;45.748;12.106;2023-06-19T12:03:17;29.80;50.90
12632;DHT22;6381;45.748;12.106;2023-06-19T12:05:47;29.70;51.20
12632;DHT22;6381;45.748;12.106;2023-06-19T12:08:16;29.70;51.70
12632;DHT22;6381;45.748;12.106;2023-06-19T12:10:44;30.30;50.90
12632;DHT22;6381;45.748;12.106;2023-06-19T12:13:13;30.10;50.60
12632;DHT22;6381;45.748;12.106;2023-06-19T12:15:42;30.50;53.20
12632;DHT22;6381;45.748;12.106;2023-06-19T12:18:15;30.20;50.50
12632;DHT22;6381;45.748;12.106;2023-06-19T12:20:44;30.60;50.70
12632;DHT22;6381;45.748;12.106;2023-06-19T12:23:13;31.40;49.80
12632;DHT22;6381;45.748;12.106;2023-06-19T12:25:42;30.60;48.80
12632;DHT22;6381;45.748;12.106;2023-06-19T12:28:10;30.00;49.90
12632;DHT22;6381;45.748;12.106;2023-06-19T12:30:44;30.20;49.00
12632;DHT22;6381;45.748;12.106;2023-06-19T12:33:14;30.70;49.00
12632;DHT22;6381;45.748;12.106;2023-06-19T12:35:47;30.70;48.30
12632;DHT22;6381;45.748;12.106;2023-06-19T12:38:17;30.50;48.60
12632;DHT22;6381;45.748;12.106;2023-06-19T12:40:52;30.90;48.50
12632;DHT22;6381;45.748;12.106;2023-06-19T12:43:34;30.60;47.80
12632;DHT22;6381;45.748;12.106;2023-06-19T12:46:17;30.70;47.50
12632;DHT22;6381;45.748;12.106;2023-06-19T12:48:48;30.60;47.90
12632;DHT22;6381;45.748;12.106;2023-06-19T12:51:18;31.00;47.30
12632;DHT22;6381;45.748;12.106;2023-06-19T12:53:46;31.10;49.80
12632;DHT22;6381;45.748;12.106;2023-06-19T12:56:15;31.60;49.10
12632;DHT22;6381;45.748;12.106;2023-06-19T12:58:44;32.30;47.60
12632;DHT22;6381;45.748;12.106;2023-06-19T13:01:13;32.70;46.70
12632;DHT22;6381;45.748;12.106;2023-06-19T13:03:42;32.70;46.60
12632;DHT22;6381;45.748;12.106;2023-06-19T13:06:12;33.00;48.30
12632;DHT22;6381;45.748;12.106;2023-06-19T13:08:41;33.10;47.30
12632;DHT22;6381;45.748;12.106;2023-06-19T13:11:12;33.50;50.10
12632;DHT22;6381;45.748;12.106;2023-06-19T13:13:41;33.50;44.90
12632;DHT22;6381;45.748;12.106;2023-06-19T13:16:10;33.70;45.10
12632;DHT22;6381;45.748;12.106;2023-06-19T13:18:41;33.70;44.20
12632;DHT22;6381;45.748;12.106;2023-06-19T13:21:12;33.20;49.80
12632;DHT22;6381;45.748;12.106;2023-06-19T13:23:41;33.10;43.50
12632;DHT22;6381;45.748;12.106;2023-06-19T13:26:10;33.30;47.40
12632;DHT22;6381;45.748;12.106;2023-06-19T13:28:39;33.70;46.50
12632;DHT22;6381;45.748;12.106;2023-06-19T13:31:08;34.20;47.40
12632;DHT22;6381;45.748;12.106;2023-06-19T13:33:38;34.30;43.90
12632;DHT22;6381;45.748;12.106;2023-06-19T13:36:13;33.20;42.40
12632;DHT22;6381;45.748;12.106;2023-06-19T13:38:42;32.40;43.70
12632;DHT22;6381;45.748;12.106;2023-06-19T13:41:11;32.40;43.40
12632;DHT22;6381;45.748;12.106;2023-06-19T13:43:41;33.10;44.70
12632;DHT22;6381;45.748;12.106;2023-06-19T13:46:20;33.60;43.20
12632;DHT22;6381;45.748;12.106;2023-06-19T13:48:54;33.90;46.10
12632;DHT22;6381;45.748;12.106;2023-06-19T13:51:32;33.90;43.90
12632;DHT22;6381;45.748;12.106;2023-06-19T13:54:04;34.70;45.10
12632;DHT22;6381;45.748;12.106;2023-06-19T13:56:33;35.00;42.40
12632;DHT22;6381;45.748;12.106;2023-06-19T13:59:01;34.10;41.50
12632;DHT22;6381;45.748;12.106;2023-06-19T14:01:30;33.80;42.70
12632;DHT22;6381;45.748;12.106;2023-06-19T14:04:01;34.30;43.40
12632;DHT22;6381;45.748;12.106;2023-06-19T14:06:34;34.40;43.80
12632;DHT22;6381;45.748;12.106;2023-06-19T14:09:25;34.60;47.40
12632;DHT22;6381;45.748;12.106;2023-06-19T14:12:24;34.70;44.00
12632;DHT22;6381;45.748;12.106;2023-06-19T14:14:53;35.20;43.50
12632;DHT22;6381;45.748;12.106;2023-06-19T14:17:24;34.50;42.80
12632;DHT22;6381;45.748;12.106;2023-06-19T14:19:53;33.30;43.60
12632;DHT22;6381;45.748;12.106;2023-06-19T14:22:24;32.90;45.00
12632;DHT22;6381;45.748;12.106;2023-06-19T14:24:53;33.60;44.90
12632;DHT22;6381;45.748;12.106;2023-06-19T14:27:27;35.00;44.20
12632;DHT22;6381;45.748;12.106;2023-06-19T14:29:55;34.70;44.00
12632;DHT22;6381;45.748;12.106;2023-06-19T14:32:24;35.50;46.80
12632;DHT22;6381;45.748;12.106;2023-06-19T14:34:53;36.00;43.90
12632;DHT22;6381;45.748;12.106;2023-06-19T14:37:23;35.90;46.10
12632;DHT22;6381;45.748;12.106;2023-06-19T14:39:52;35.80;45.10
12632;DHT22;6381;45.748;12.106;2023-06-19T14:42:22;35.20;43.50
12632;DHT22;6381;45.748;12.106;2023-06-19T14:44:51;35.20;45.10
12632;DHT22;6381;45.748;12.106;2023-06-19T14:47:20;35.20;46.00
12632;DHT22;6381;45.748;12.106;2023-06-19T14:49:49;35.30;47.10
12632;DHT22;6381;45.748;12.106;2023-06-19T14:52:20;34.10;49.00
12632;DHT22;6381;45.748;12.106;2023-06-19T14:55:18;34.20;51.90
12632;DHT22;6381;45.748;12.106;2023-06-19T15:02:48;33.80;39.90
12632;DHT22;6381;45.748;12.106;2023-06-19T15:05:19;34.60;40.20
12632;DHT22;6381;45.748;12.106;2023-06-19T15:07:48;35.40;39.20
12632;DHT22;6381;45.748;12.106;2023-06-19T15:10:18;36.50;38.80
12632;DHT22;6381;45.748;12.106;2023-06-19T15:12:47;35.40;37.30
12632;DHT22;6381;45.748;12.106;2023-06-19T15:15:16;35.20;38.90
12632;DHT22;6381;45.748;12.106;2023-06-19T15:17:45;33.80;39.10
12632;DHT22;6381;45.748;12.106;2023-06-19T15:20:14;33.20;41.30
12632;DHT22;6381;45.748;12.106;2023-06-19T15:22:45;34.10;40.00
12632;DHT22;6381;45.748;12.106;2023-06-19T15:25:14;33.80;40.30
12632;DHT22;6381;45.748;12.106;2023-06-19T15:27:44;33.40;40.60
12632;DHT22;6381;45.748;12.106;2023-06-19T15:30:13;33.70;40.70
12632;DHT22;6381;45.748;12.106;2023-06-19T15:32:43;34.20;39.30
12632;DHT22;6381;45.748;12.106;2023-06-19T15:35:12;34.70;39.10
12632;DHT22;6381;45.748;12.106;2023-06-19T15:37:40;34.40;39.30
12632;DHT22;6381;45.748;12.106;2023-06-19T15:40:10;33.40;40.30
12632;DHT22;6381;45.748;12.106;2023-06-19T15:42:40;32.90;41.00
12632;DHT22;6381;45.748;12.106;2023-06-19T15:45:10;33.70;40.10
12632;DHT22;6381;45.748;12.106;2023-06-19T15:47:41;32.80;40.60
12632;DHT22;6381;45.748;12.106;2023-06-19T15:50:12;33.30;41.80
12632;DHT22;6381;45.748;12.106;2023-06-19T15:52:43;33.60;45.60
12632;DHT22;6381;45.748;12.106;2023-06-19T15:55:14;33.80;47.40
12632;DHT22;6381;45.748;12.106;2023-06-19T15:57:42;33.00;48.30
12632;DHT22;6381;45.748;12.106;2023-06-19T16:00:14;32.70;48.50
12632;DHT22;6381;45.748;12.106;2023-06-19T16:02:44;32.40;49.60
12632;DHT22;6381;45.748;12.106;2023-06-19T16:05:15;31.90;52.00